Latest Weather Observations for Samuel Hill

IDQ60801

Issued at 2:02 pm EST Wednesday 24 May 2017 (issued every 30 minutes, with the page automatically refreshed every 10 minutes)

About weather observations | Map of weather stations | Latest weather observations for QLD | Other Formats
Station Details ID: 033308 Name: SAMUEL HILL AERO Lat: -22.74 Lon: 150.66 Height: 31.0 m
Data from the previous 72 hours. | See also: Recent months at Samuel Hill
Date/Time
EST
Temp
°C
App
Temp
°C
Dew
Point
°C
Rel
Hum
%
Delta-T
°C
Wind Press
QNH
hPa
Press
MSL
hPa
Rain since
9am
mm
Dir  Spd
km/h
Gust
km/h
Spd
kts
Gust
kts
24/02:00pm 25.7 24.3 13.5 46 7.2 ESE 13 19 7 10 1017.0 1016.9 0.0
24/01:30pm 25.8 24.4 14.6 50 6.7 ESE 15 22 8 12 1017.2 1017.1 0.0
24/01:00pm 26.1 24.9 13.9 47 7.2 ESE 13 20 7 11 1017.6 1017.5 0.0
24/12:30pm 25.3 24.7 15.6 55 5.9 SE 13 24 7 13 1018.2 1018.1 0.0
24/12:00pm 25.7 25.9 16.8 58 5.5 SSE 11 19 6 10 1018.6 1018.5 0.0
24/11:30am 25.1 25.1 17.3 62 4.9 SE 13 17 7 9 1019.0 1018.9 0.0
24/11:00am 25.4 26.8 18.6 66 4.3 SE 9 15 5 8 1019.4 1019.3 0.0
24/10:30am 23.8 25.1 18.4 72 3.4 SE 9 15 5 8 1019.9 1019.8 0.0
24/10:00am 23.2 24.2 18.7 76 2.8 SSE 11 17 6 9 1020.2 1020.1 0.0
24/09:30am 22.4 22.9 18.4 78 2.5 SE 13 24 7 13 1020.3 1020.2 0.0
24/09:19am 22.3 23.1 19.1 82 2.0 SE 13 19 7 10 1020.3 1020.2 0.0
24/09:00am 21.7 23.1 19.6 88 1.3 SE 11 17 6 9 1020.2 1020.1 0.2
24/08:54am 21.4 22.3 19.3 88 1.3 SE 13 17 7 9 1020.1 1020.0 0.2
24/08:51am 21.2 21.9 18.9 87 1.4 SE 13 17 7 9 1020.1 1020.0 0.2
24/08:33am 20.8 22.2 19.5 92 0.8 SSE 11 13 6 7 1020.0 1019.9 0.2
24/08:30am 20.6 21.9 19.3 92 0.8 SSE 11 13 6 7 1020.0 1019.9 0.2
24/08:09am 19.7 21.8 19.4 98 0.2 SSE 7 11 4 6 1019.9 1019.8 0.2
24/08:00am 19.3 22.2 19.1 99 0.1 SE 2 9 1 5 1019.8 1019.7 0.2
24/07:48am 18.8 21.9 18.6 99 0.1 CALM 0 0 0 0 1019.7 1019.6 0.2
24/07:31am 18.1 20.9 17.9 99 0.1 CALM 0 0 0 0 1019.8 1019.7 0.2
24/07:30am 18.1 20.9 17.9 99 0.1 CALM 0 0 0 0 1019.8 1019.7 0.2
24/07:11am 17.2 19.6 17.0 99 0.1 CALM 0 0 0 0 1019.5 1019.4 0.2
24/07:00am 16.5 18.6 16.3 99 0.1 CALM 0 0 0 0 1019.4 1019.3 0.2
24/06:35am 15.1 16.7 14.9 99 0.1 CALM 0 0 0 0 1019.3 1019.2 0.2
24/06:30am 15.1 16.7 14.9 99 0.1 CALM 0 0 0 0 1019.3 1019.2 0.2
24/06:00am 15.8 17.6 15.6 99 0.1 CALM 0 0 0 0 1019.0 1018.9 0.2
24/05:30am 16.3 18.3 16.1 99 0.1 CALM 0 0 0 0 1018.8 1018.7 0.2
24/05:20am 15.9 17.8 15.7 99 0.1 CALM 0 6 0 3 1018.7 1018.6 0.2
24/05:15am 16.4 17.7 16.2 99 0.1 S 4 7 2 4 1018.6 1018.5 0.2
24/05:00am 16.6 17.4 16.4 99 0.1 S 7 9 4 5 1018.6 1018.5 0.2
24/04:30am 17.1 18.3 16.9 99 0.1 SE 6 7 3 4 1018.3 1018.2 0.2
24/04:00am 16.5 18.6 16.3 99 0.1 CALM 0 0 0 0 1018.2 1018.1 0.2
24/03:30am 15.9 16.5 15.7 99 0.1 SE 7 9 4 5 1018.2 1018.1 0.2
24/03:25am 15.7 16.7 15.4 98 0.2 SE 4 9 2 5 1018.1 1018.0 0.2
24/03:22am 15.6 17.3 15.3 98 0.2 CALM 0 9 0 5 1018.1 1018.0 0.2
24/03:00am 15.5 17.2 15.2 98 0.2 CALM 0 0 0 0 1018.0 1017.9 0.2
24/02:30am 15.7 17.5 15.4 98 0.2 CALM 0 0 0 0 1018.1 1018.0 0.2
24/02:00am 15.5 17.1 15.0 97 0.3 CALM 0 0 0 0 1018.1 1018.0 0.2
24/01:59am 15.5 17.1 15.0 97 0.3 CALM 0 0 0 0 1018.1 1018.0 0.2
24/01:30am 15.7 17.4 15.1 96 0.3 CALM 0 0 0 0 1018.3 1018.2 0.2
24/01:00am 15.4 16.9 14.6 95 0.5 CALM 0 0 0 0 1018.6 1018.5 0.2
24/12:37am 15.8 17.4 15.0 95 0.5 CALM 0 0 0 0 1018.7 1018.6 0.2
24/12:30am 15.7 17.3 14.9 95 0.5 CALM 0 0 0 0 1018.7 1018.6 0.2
24/12:10am 15.6 17.2 14.8 95 0.5 CALM 0 0 0 0 1018.8 1018.7 0.2
24/12:00am 15.9 17.6 15.1 95 0.5 CALM 0 0 0 0 1018.8 1018.7 0.2
 
Date/Time
EST
Temp
°C
App
Temp
°C
Dew
Point
°C
Rel
Hum
%
Delta-T
°C
Wind Press
QNH
hPa
Press
MSL
hPa
Rain since
9am
mm
Dir  Spd
km/h
Gust
km/h
Spd
kts
Gust
kts
23/11:52pm 16.0 17.7 15.2 95 0.5 CALM 0 0 0 0 1018.9 1018.8 0.2
23/11:30pm 16.2 16.8 15.4 95 0.5 S 6 7 3 4 1019.1 1019.0 0.2
23/11:27pm 16.2 16.8 15.4 95 0.5 SSW 6 7 3 4 1019.1 1019.0 0.2
23/11:10pm 16.3 17.7 15.5 95 0.5 S 2 7 1 4 1019.2 1019.1 0.2
23/11:00pm 16.3 18.1 15.5 95 0.5 CALM 0 0 0 0 1019.3 1019.2 0.2
23/10:51pm 16.3 18.0 15.3 94 0.6 CALM 0 0 0 0 1019.3 1019.2 0.2
23/10:30pm 16.5 18.4 15.7 95 0.5 CALM 0 0 0 0 1019.4 1019.3 0.2
23/10:18pm 16.7 18.7 15.9 95 0.5 CALM 0 0 0 0 1019.3 1019.2 0.2
23/10:15pm 16.8 18.8 16.0 95 0.5 CALM 0 0 0 0 1019.3 1019.2 0.2
23/10:00pm 17.2 19.3 16.2 94 0.6 CALM 0 0 0 0 1019.3 1019.2 0.2
23/09:56pm 17.0 19.0 15.9 93 0.6 CALM 0 0 0 0 1019.3 1019.2 0.2
23/09:30pm 17.4 19.6 16.4 94 0.6 CALM 0 0 0 0 1019.4 1019.3 0.2
23/09:00pm 17.5 19.7 16.4 93 0.7 CALM 0 0 0 0 1019.4 1019.3 0.2
23/08:30pm 17.2 19.1 15.7 91 0.9 CALM 0 0 0 0 1019.2 1019.1 0.2
23/08:00pm 17.8 19.9 16.3 91 0.9 CALM 0 0 0 0 1019.2 1019.1 0.2
23/07:30pm 18.3 20.5 16.5 89 1.1 CALM 0 0 0 0 1019.0 1018.9 0.2
23/07:00pm 19.0 21.5 17.3 90 1.0 CALM 0 0 0 0 1018.8 1018.7 0.2
23/06:30pm 19.5 22.0 17.3 87 1.3 CALM 0 0 0 0 1018.5 1018.4 0.2
23/06:00pm 20.5 22.9 17.9 85 1.6 SE 2 6 1 3 1018.4 1018.3 0.2
23/05:30pm 21.5 23.4 18.5 83 1.9 SE 6 9 3 5 1018.2 1018.1 0.2
23/05:00pm 22.5 23.4 18.5 78 2.5 ESE 11 15 6 8 1018.0 1017.9 0.2
23/04:30pm 23.5 24.1 18.6 74 3.1 ESE 13 15 7 8 1017.8 1017.7 0.2
23/04:00pm 23.8 23.8 18.2 71 3.5 ESE 15 20 8 11 1017.4 1017.3 0.2
23/03:30pm 24.7 24.7 18.2 67 4.1 ESE 15 20 8 11 1017.2 1017.1 0.2
23/03:00pm 24.9 24.8 17.9 65 4.4 ESE 15 22 8 12 1017.3 1017.2 0.2
23/02:30pm 25.3 24.8 17.7 62 4.8 ESE 17 24 9 13 1017.4 1017.3 0.2
23/02:00pm 25.1 24.8 18.3 66 4.3 SE 17 24 9 13 1017.5 1017.4 0.2
23/01:30pm 24.8 25.2 19.0 70 3.7 SE 15 22 8 12 1017.7 1017.6 0.2
23/01:00pm 24.2 25.0 19.1 73 3.3 SE 13 22 7 12 1018.0 1017.9 0.2
23/12:30pm 25.3 25.7 19.9 72 3.5 ESE 17 26 9 14 1018.4 1018.3 0.2
23/12:00pm 23.8 23.7 18.7 73 3.2 SE 17 24 9 13 1019.1 1019.0 0.2
23/11:30am 24.8 25.7 20.1 75 3.1 SE 15 28 8 15 1019.4 1019.3 0.2
23/11:00am 24.2 24.5 19.5 75 3.0 SE 17 26 9 14 1019.8 1019.7 0.2
23/10:30am 23.8 24.2 19.9 79 2.5 SE 17 28 9 15 1020.0 1019.9 0.0
23/10:00am 23.8 25.6 20.3 81 2.3 SSE 11 20 6 11 1020.4 1020.3 0.0
23/09:46am 23.2 24.0 19.8 81 2.2 SSE 15 24 8 13 1020.4 1020.3 0.0
23/09:30am 23.2 24.2 20.2 83 1.9 SSE 15 20 8 11 1020.5 1020.4 0.0
23/09:00am 22.5 23.9 20.4 88 1.4 SSE 13 20 7 11 1020.5 1020.4 1.0
23/08:30am 21.5 23.4 20.5 94 0.6 SSE 11 17 6 9 1020.3 1020.2 1.0
23/08:00am 21.3 22.7 20.3 94 0.6 SSE 13 17 7 9 1020.2 1020.1 1.0
23/07:35am 21.0 23.2 20.3 96 0.5 SSE 9 17 5 9 1020.0 1019.9 1.0
23/07:31am 21.0 23.2 20.3 96 0.5 SSE 9 17 5 9 1020.0 1019.9 1.0
23/07:30am 20.9 23.0 20.2 96 0.4 SSE 9 17 5 9 1020.0 1019.9 1.0
23/07:00am 20.7 22.3 20.0 96 0.4 SSE 11 15 6 8 1019.6 1019.5 1.0
23/06:30am 20.4 22.3 19.7 96 0.4 SSE 9 13 5 7 1019.2 1019.1 1.0
23/06:00am 19.7 21.5 18.7 94 0.6 SE 7 11 4 6 1019.1 1019.0 1.0
23/05:59am 19.7 21.4 18.5 93 0.7 SE 7 11 4 6 1019.0 1018.9 1.0
23/05:30am 19.6 20.7 18.1 91 0.9 SSE 9 13 5 7 1018.8 1018.7 1.0
23/05:00am 20.0 20.6 18.7 92 0.8 SSE 13 20 7 11 1018.4 1018.3 1.0
23/04:30am 20.6 23.1 19.9 96 0.4 SSE 6 7 3 4 1018.2 1018.1 1.0
23/04:24am 20.7 23.3 20.0 96 0.4 SSE 6 11 3 6 1018.1 1018.0 1.0
23/04:09am 20.5 22.0 19.8 96 0.4 SE 11 17 6 9 1018.1 1018.0 0.8
23/04:00am 20.3 21.8 19.8 97 0.3 SSE 11 15 6 8 1018.2 1018.1 0.2
23/03:30am 20.3 22.7 20.0 98 0.2 SSE 7 9 4 5 1018.2 1018.1 0.2
23/03:00am 20.4 22.7 19.9 97 0.3 SSE 7 11 4 6 1018.1 1018.0 0.2
23/02:30am 20.3 22.1 19.6 96 0.4 SSE 9 11 5 6 1018.2 1018.1 0.2
23/02:00am 20.0 21.9 19.0 94 0.6 SSE 7 11 4 6 1018.5 1018.4 0.2
23/01:30am 20.1 22.3 19.1 94 0.6 SE 6 7 3 4 1018.5 1018.4 0.2
23/01:00am 20.6 22.5 19.8 95 0.5 S 9 11 5 6 1018.6 1018.5 0.2
23/12:30am 20.6 22.7 19.3 92 0.8 S 7 9 4 5 1018.5 1018.4 0.2
23/12:00am 21.2 22.6 19.5 90 1.1 SE 11 15 6 8 1018.6 1018.5 0.2
 
Date/Time
EST
Temp
°C
App
Temp
°C
Dew
Point
°C
Rel
Hum
%
Delta-T
°C
Wind Press
QNH
hPa
Press
MSL
hPa
Rain since
9am
mm
Dir  Spd
km/h
Gust
km/h
Spd
kts
Gust
kts
22/11:30pm 21.5 23.3 20.3 93 0.8 ESE 11 19 6 10 1018.7 1018.6 0.2
22/11:00pm 21.2 23.6 20.0 93 0.8 SE 7 11 4 6 1018.8 1018.7 0.2
22/10:30pm 21.0 22.8 19.5 91 1.0 SSE 9 11 5 6 1018.9 1018.8 0.2
22/10:00pm 21.8 23.5 20.1 90 1.1 SE 11 15 6 8 1018.9 1018.8 0.2
22/09:30pm 21.8 23.9 20.1 90 1.1 SE 9 13 5 7 1019.1 1019.0 0.2
22/09:00pm 21.9 24.0 20.2 90 1.1 SE 9 17 5 9 1019.2 1019.1 0.2
22/08:41pm 22.0 23.7 20.1 89 1.2 SE 11 13 6 7 1019.1 1019.0 0.2
22/08:30pm 22.1 23.7 20.0 88 1.3 SE 11 19 6 10 1019.1 1019.0 0.2
22/08:03pm 22.3 24.0 20.2 88 1.4 SE 11 19 6 10 1019.1 1019.0 0.2
22/08:00pm 22.3 24.0 20.2 88 1.4 SE 11 17 6 9 1019.1 1019.0 0.2
22/07:30pm 22.4 23.7 20.1 87 1.5 SE 13 22 7 12 1018.6 1018.5 0.2
22/07:00pm 22.4 23.7 20.1 87 1.5 SE 13 20 7 11 1018.3 1018.2 0.2
22/06:30pm 22.3 23.9 20.0 87 1.5 SE 11 20 6 11 1018.0 1017.9 0.2
22/06:00pm 22.2 23.3 19.7 86 1.6 SE 13 20 7 11 1017.6 1017.5 0.2
22/05:30pm 22.6 23.0 19.9 85 1.7 SE 17 24 9 13 1017.4 1017.3 0.2
22/05:00pm 22.8 23.3 20.0 84 1.8 SE 17 24 9 13 1017.2 1017.1 0.2
22/04:30pm 23.2 23.7 20.0 82 2.1 SE 17 24 9 13 1016.9 1016.8 0.2
22/04:00pm 23.4 23.4 19.8 80 2.3 SE 19 28 10 15 1016.8 1016.7 0.2
22/03:30pm 23.9 23.9 19.8 78 2.6 SE 19 30 10 16 1016.7 1016.6 0.2
22/03:00pm 23.9 23.9 19.8 78 2.6 SE 19 32 10 17 1016.6 1016.5 0.2
22/02:30pm 23.8 23.3 19.9 79 2.5 SE 22 35 12 19 1016.6 1016.5 0.2
22/02:00pm 24.3 24.8 20.0 77 2.8 SE 17 28 9 15 1016.7 1016.6 0.2
22/01:30pm 24.3 25.0 20.4 79 2.5 SE 17 24 9 13 1016.9 1016.8 0.2
22/01:00pm 23.9 23.9 19.8 78 2.6 SE 19 26 10 14 1017.2 1017.1 0.2
22/12:30pm 23.7 23.5 19.8 79 2.5 SE 20 28 11 15 1017.3 1017.2 0.0
22/12:00pm 24.2 24.9 20.5 80 2.4 SE 17 28 9 15 1017.6 1017.5 0.0
22/11:30am 23.8 23.9 19.9 79 2.5 SE 19 30 10 16 1017.9 1017.8 0.0
22/11:00am 23.8 24.3 20.1 80 2.4 SE 17 24 9 13 1018.2 1018.1 0.0
22/10:30am 23.6 24.3 20.5 83 2.0 SSE 17 24 9 13 1018.5 1018.4 0.0
22/10:00am 23.1 23.7 20.2 84 1.9 SSE 17 20 9 11 1018.8 1018.7 0.0
22/09:51am 23.4 24.0 20.3 83 2.0 SE 17 35 9 19 1018.8 1018.7 0.0
22/09:38am 23.6 24.3 20.5 83 2.0 SE 17 26 9 14 1018.8 1018.7 0.0
22/09:35am 23.7 24.5 20.6 83 2.0 SE 17 26 9 14 1018.8 1018.7 0.0
22/09:30am 23.5 24.2 20.4 83 2.0 ESE 17 28 9 15 1018.7 1018.6 0.0
22/09:00am 22.6 24.4 21.1 91 1.0 SE 13 22 7 12 1018.7 1018.6 1.0
22/08:30am 21.5 23.1 20.7 95 0.5 SE 13 22 7 12 1018.6 1018.5 1.0
22/08:20am 21.3 22.3 20.3 94 0.6 SE 15 24 8 13 1018.6 1018.5 1.0
22/08:07am 21.3 22.6 20.1 93 0.8 SSE 13 22 7 12 1018.5 1018.4 1.0
22/08:00am 21.4 22.7 20.2 93 0.8 SSE 13 22 7 12 1018.5 1018.4 1.0
22/07:30am 21.3 23.1 20.3 94 0.6 SSE 11 17 6 9 1018.2 1018.1 1.0
22/07:18am 21.3 23.5 20.3 94 0.6 SSE 9 13 5 7 1018.0 1017.9 1.0
22/07:07am 21.2 22.9 20.2 94 0.6 SSE 11 15 6 8 1017.8 1017.7 1.0
22/07:00am 21.1 22.9 20.3 95 0.5 SSE 11 17 6 9 1017.7 1017.6 1.0
22/06:42am 21.0 22.5 19.8 93 0.8 SSE 11 17 6 9 1017.5 1017.4 1.0
22/06:30am 21.0 22.2 19.8 93 0.8 SSE 13 19 7 10 1017.3 1017.2 1.0
22/06:00am 21.2 22.3 19.7 91 1.0 SSE 13 19 7 10 1017.1 1017.0 1.0
22/05:30am 21.1 22.2 19.7 92 0.9 SSE 13 17 7 9 1016.7 1016.6 1.0
22/05:00am 21.0 22.1 19.7 92 0.8 SSE 13 19 7 10 1016.4 1016.3 1.0
22/04:43am 20.8 22.6 19.6 93 0.8 SSE 9 13 5 7 1016.4 1016.3 1.0
22/04:30am 20.8 22.6 19.6 93 0.8 SSE 9 15 5 8 1016.4 1016.3 1.0
22/04:00am 20.7 22.1 19.5 93 0.8 SSE 11 17 6 9 1016.4 1016.3 1.0
22/03:30am 20.6 21.9 19.4 93 0.8 SSE 11 19 6 10 1016.2 1016.1 1.0
22/03:13am 20.8 21.9 19.6 93 0.8 SSE 13 17 7 9 1016.3 1016.2 1.0
22/03:00am 21.0 22.2 19.8 93 0.8 SSE 13 20 7 11 1016.4 1016.3 1.0
22/02:46am 21.0 22.2 19.8 93 0.8 SSE 13 19 7 10 1016.4 1016.3 1.0
22/02:40am 20.9 22.0 19.7 93 0.8 SSE 13 19 7 10 1016.5 1016.4 1.0
22/02:30am 20.9 22.0 19.7 93 0.8 SSE 13 19 7 10 1016.5 1016.4 1.0
22/02:06am 20.9 22.5 19.9 94 0.6 SSE 11 17 6 9 1016.6 1016.5 1.0
22/02:02am 21.0 22.6 20.0 94 0.6 SSE 11 17 6 9 1016.6 1016.5 1.0
22/02:00am 21.0 23.0 20.0 94 0.6 SSE 9 17 5 9 1016.6 1016.5 1.0
22/01:48am 21.0 23.0 20.0 94 0.6 SE 9 13 5 7 1016.7 1016.6 1.0
22/01:30am 21.0 22.2 19.8 93 0.8 SSE 13 17 7 9 1016.8 1016.7 1.0
22/01:14am 21.1 22.4 20.1 94 0.6 SSE 13 22 7 12 1016.9 1016.8 1.0
22/01:04am 21.1 22.4 20.1 94 0.6 SSE 13 19 7 10 1017.0 1016.9 1.0
22/01:00am 21.1 22.8 20.1 94 0.6 SSE 11 19 6 10 1017.0 1016.9 1.0
22/12:59am 21.1 22.8 20.1 94 0.6 SSE 11 19 6 10 1017.0 1016.9 1.0
22/12:52am 21.0 22.9 19.8 93 0.8 S 9 13 5 7 1016.9 1016.8 0.8
22/12:30am 20.7 22.3 19.2 91 0.9 SSE 9 11 5 6 1017.0 1016.9 0.2
22/12:00am 21.1 22.5 19.6 91 1.0 SE 11 20 6 11 1017.3 1017.2 0.2
 
Date/Time
EST
Temp
°C
App
Temp
°C
Dew
Point
°C
Rel
Hum
%
Delta-T
°C
Wind Press
QNH
hPa
Press
MSL
hPa
Rain since
9am
mm
Dir  Spd
km/h
Gust
km/h
Spd
kts
Gust
kts
21/11:30pm 21.1 22.9 19.6 91 1.0 SSE 9 11 5 6 1017.2 1017.1 0.2
21/11:00pm 21.3 23.1 19.6 90 1.1 SSE 9 11 5 6 1017.5 1017.4 0.2
21/10:30pm 21.5 23.3 19.6 89 1.2 SSE 9 11 5 6 1017.6 1017.5 0.2
21/10:00pm 21.7 23.9 19.6 88 1.3 SSE 7 13 4 7 1017.6 1017.5 0.2
21/09:30pm 21.8 23.6 19.5 87 1.5 SE 9 15 5 8 1017.6 1017.5 0.2
21/09:00pm 22.1 23.5 19.6 86 1.6 SE 11 15 6 8 1017.7 1017.6 0.2
21/08:30pm 22.3 23.5 19.8 86 1.6 SSE 13 17 7 9 1017.4 1017.3 0.2
21/08:00pm 22.3 24.1 19.5 84 1.8 SE 9 13 5 7 1017.3 1017.2 0.2
21/07:30pm 22.1 23.8 19.3 84 1.8 SSE 9 11 5 6 1016.8 1016.7 0.2
21/07:00pm 21.9 23.5 19.1 84 1.8 SSE 9 13 5 7 1016.8 1016.7 0.2
21/06:30pm 21.8 23.5 18.6 82 2.0 S 7 9 4 5 1016.5 1016.4 0.2
21/06:00pm 22.1 23.2 18.9 82 2.0 SE 11 17 6 9 1016.2 1016.1 0.2
21/05:30pm 22.3 23.2 18.5 79 2.4 SE 11 22 6 12 1016.0 1015.9 0.2
21/05:00pm 23.0 23.5 18.3 75 2.9 SE 13 22 7 12 1015.7 1015.6 0.2
21/04:30pm 23.7 24.1 18.1 71 3.5 SE 13 20 7 11 1015.3 1015.2 0.2
21/04:00pm 24.2 23.2 17.9 68 3.9 SE 20 30 11 16 1015.2 1015.1 0.2
21/03:30pm 24.6 24.0 17.6 65 4.4 SE 17 28 9 15 1015.2 1015.1 0.2
21/03:00pm 24.6 23.2 17.1 63 4.6 SE 20 30 11 16 1015.2 1015.1 0.2
21/02:30pm 24.9 23.7 17.4 63 4.7 SSE 20 32 11 17 1015.0 1014.9 0.2

Other Formats:

Comma delimited format used in spreadsheet applications
http://www.bom.gov.au/fwo/IDQ60801/IDQ60801.94370.axf

JavaScript Object Notation format (JSON) in row-major order
http://www.bom.gov.au/fwo/IDQ60801/IDQ60801.94370.json